This is the latest recevied weather packets stored in our database for station/object OK1PNK-5. If no packets are shown the sender has not sent any weather packets the latest 10 day(s).
| Time | Temp. | Humidity | Pressure | Rain* | Wind** | Luminosity | Snow |
|---|---|---|---|---|---|---|---|
| 1778011194 | 15.56° C | 83% | 965.2 hPa | 0.76 mm | - | - | - |
| 1778010594 | 15.56° C | 83% | 964.7 hPa | 2.03 mm | - | - | - |
| 1778009994 | 16.11° C | 83% | 964.6 hPa | 2.03 mm | - | - | - |
| 1778009394 | 16.11° C | 83% | 964.7 hPa | 2.29 mm | - | - | - |
| 1778008794 | 16.11° C | 83% | 964.7 hPa | 2.29 mm | - | - | - |
| 1778008194 | 16.67° C | 80% | 964.1 hPa | 1.78 mm | - | - | - |
| 1778007594 | 17.78° C | 78% | 964.5 hPa | 0.51 mm | - | - | - |
| 1778006994 | 17.78° C | 78% | 964.5 hPa | 0.51 mm | - | - | - |
| 1778006394 | 17.78° C | 76% | 963.9 hPa | 0.25 mm | - | - | - |
| 1778005794 | 18.33° C | 75% | 962.4 hPa | 0.51 mm | - | - | - |
| 1778005194 | 18.33° C | 75% | 962.4 hPa | 3.3 mm | - | - | - |
| 1778004594 | 18.33° C | 75% | 962.1 hPa | 5.84 mm | - | - | - |
| 1778003994 | 18.33° C | 75% | 961.9 hPa | 6.1 mm | - | - | - |
| 1778003394 | 18.89° C | 73% | 962 hPa | 6.1 mm | - | - | - |
| 1778002794 | 19.44° C | 69% | 962.4 hPa | 6.1 mm | - | - | - |
| 1778002194 | 20.56° C | 64% | 962.8 hPa | 5.59 mm | - | - | - |
| 1778001594 | 21.11° C | 59% | 963.4 hPa | 2.79 mm | - | - | - |
| 1778000994 | 21.67° C | 53% | 963.1 hPa | 0.25 mm | - | - | - |
| 1778000394 | 21.67° C | 50% | 962.1 hPa | 0 mm | - | - | - |
| 1777999794 | 21.67° C | 50% | 962.1 hPa | 0 mm | - | - | - |
| 1777999194 | 22.22° C | 46% | 962.2 hPa | 0 mm | - | - | - |
| 1777998594 | 23.33° C | 43% | 962.3 hPa | 0 mm | - | - | - |
| 1777996944 | 24.44° C | 39% | 962.4 hPa | 0 mm | - | - | - |
| 1777996344 | 25° C | 36% | 962.5 hPa | 0 mm | - | - | - |
| 1777995744 | 25° C | 35% | 962.6 hPa | 0 mm | - | - | - |
* Rain latest hour (hover to see other rain measurements)
** Current wind speed in m/s (hover to see current wind gust speed)